TimeICT,TemperatureF,Dew PointF,Humidity,Sea Level PressureIn,VisibilityMPH,Wind Direction,Wind SpeedMPH,Gust SpeedMPH,PrecipitationIn,Events,Conditions,WindDirDegrees,DateUTC
12:00 AM,75.2,68.0,78,29.92,4.3,ENE,3.5,-,N/A,,Scattered Clouds,60,2014-01-25 17:00:00
12:30 AM,75.2,68.0,78,29.92,4.3,Calm,Calm,-,N/A,,Scattered Clouds,0,2014-01-25 17:30:00
1:00 AM,76,70,78,29.87,4,Calm,Calm,,,,Mist,,2014-01-25 18:00:00
1:00 AM,73.4,68.0,83,29.92,4.3,Calm,Calm,-,N/A,,Scattered Clouds,0,2014-01-25 18:00:00
1:30 AM,73.4,68.0,83,29.89,4.3,Variable,1.2,-,N/A,,Scattered Clouds,0,2014-01-25 18:30:00
2:00 AM,73.4,69.8,88,29.89,4.3,Calm,Calm,-,N/A,,Scattered Clouds,0,2014-01-25 19:00:00
2:30 AM,73.4,69.8,88,29.89,3.7,Variable,2.3,-,N/A,,Scattered Clouds,0,2014-01-25 19:30:00
3:00 AM,73.4,68.0,83,29.89,3.7,Variable,2.3,-,N/A,,Scattered Clouds,0,2014-01-25 20:00:00
3:30 AM,73.4,68.0,83,29.89,3.7,Variable,1.2,-,N/A,,Scattered Clouds,0,2014-01-25 20:30:00
4:00 AM,76,67,68,29.86,4,Calm,Calm,,,,Mist,,2014-01-25 21:00:00
4:00 AM,73.4,69.8,88,29.86,3.7,NE,4.6,-,N/A,,Scattered Clouds,40,2014-01-25 21:00:00
5:00 AM,73.4,68.0,83,29.89,3.7,East,4.6,-,N/A,,Scattered Clouds,80,2014-01-25 22:00:00
5:30 AM,75.2,68.0,78,29.89,3.1,East,8.1,-,N/A,,Scattered Clouds,80,2014-01-25 22:30:00
6:00 AM,75.2,68.0,78,29.89,3.1,East,6.9,-,N/A,,Scattered Clouds,80,2014-01-25 23:00:00
6:30 AM,75.2,68.0,78,29.89,3.1,East,6.9,-,N/A,,Mostly Cloudy,80,2014-01-25 23:30:00
7:00 AM,75,69,77,29.86,3,Calm,Calm,,,,Mist,,2014-01-26 00:00:00
7:00 AM,75.2,68.0,78,29.92,3.1,East,8.1,-,N/A,,Mostly Cloudy,80,2014-01-26 00:00:00
7:30 AM,75.2,68.0,78,29.92,3.1,East,9.2,-,N/A,,Mostly Cloudy,80,2014-01-26 00:30:00
8:00 AM,77.0,68.0,74,29.92,3.1,ENE,10.4,-,N/A,,Mostly Cloudy,70,2014-01-26 01:00:00
8:30 AM,78.8,68.0,69,29.95,5.6,ENE,13.8,-,N/A,,Mostly Cloudy,70,2014-01-26 01:30:00
9:00 AM,80.6,68.0,65,29.95,5.6,ENE,13.8,-,N/A,,Mostly Cloudy,70,2014-01-26 02:00:00
9:30 AM,80.6,68.0,65,29.95,5.6,ENE,12.7,-,N/A,,Mostly Cloudy,70,2014-01-26 02:30:00
10:00 AM,81,69,60,29.91,4,East,11.5,,,,Mist,100,2014-01-26 03:00:00
10:00 AM,80.6,68.0,65,29.95,5.6,East,11.5,-,N/A,,Mostly Cloudy,90,2014-01-26 03:00:00
10:30 AM,80.6,68.0,65,29.95,5.6,East,11.5,-,N/A,,Mostly Cloudy,90,2014-01-26 03:30:00
11:00 AM,82.4,68.0,62,29.95,5.6,East,11.5,-,N/A,,Mostly Cloudy,90,2014-01-26 04:00:00
11:30 AM,82.4,68.0,62,29.92,5.6,East,11.5,-,N/A,,Mostly Cloudy,80,2014-01-26 04:30:00
12:00 PM,84.2,68.0,58,29.92,5.6,East,12.7,-,N/A,,Mostly Cloudy,80,2014-01-26 05:00:00
12:30 PM,84.2,68.0,58,29.89,5.6,East,12.7,-,N/A,,Mostly Cloudy,80,2014-01-26 05:30:00
1:00 PM,87,71,49,29.87,4,SE,10.4,,,,Haze,130,2014-01-26 06:00:00
1:00 PM,86.0,68.0,55,29.89,5.6,East,8.1,-,N/A,,Mostly Cloudy,100,2014-01-26 06:00:00
1:30 PM,86.0,68.0,55,29.86,5.6,East,10.4,-,N/A,,Mostly Cloudy,80,2014-01-26 06:30:00
2:00 PM,87.8,68.0,52,29.86,5.6,East,9.2,-,N/A,,Mostly Cloudy,90,2014-01-26 07:00:00
2:30 PM,87.8,66.2,49,29.83,5.6,East,9.2,-,N/A,,Mostly Cloudy,90,2014-01-26 07:30:00
3:00 PM,87.8,64.4,46,29.83,5.6,ENE,8.1,-,N/A,,Mostly Cloudy,70,2014-01-26 08:00:00
3:30 PM,86.0,69.8,58,29.83,5.6,WNW,8.1,-,N/A,,Mostly Cloudy,300,2014-01-26 08:30:00
4:00 PM,87,72,54,29.79,4,NNW,11.5,,,,Haze,340,2014-01-26 09:00:00
4:00 PM,86.0,69.8,58,29.80,5.6,West,11.5,-,N/A,,Mostly Cloudy,270,2014-01-26 09:00:00
4:30 PM,82.4,69.8,66,29.80,5.6,West,8.1,-,N/A,,Mostly Cloudy,270,2014-01-26 09:30:00
5:00 PM,84.2,69.8,62,29.80,5.6,West,8.1,-,N/A,,Mostly Cloudy,270,2014-01-26 10:00:00
5:30 PM,84.2,68.0,58,29.83,5.6,West,8.1,-,N/A,,Mostly Cloudy,280,2014-01-26 10:30:00
6:00 PM,82.4,69.8,66,29.83,5.6,WNW,9.2,-,N/A,,Mostly Cloudy,290,2014-01-26 11:00:00
6:30 PM,80.6,69.8,70,29.83,5.6,WNW,8.1,-,N/A,,Mostly Cloudy,290,2014-01-26 11:30:00
7:00 PM,83,73,64,29.81,4,Calm,Calm,,,,Mist,,2014-01-26 12:00:00
7:00 PM,80.6,69.8,70,29.83,5.0,NW,6.9,-,N/A,,Mostly Cloudy,310,2014-01-26 12:00:00
8:00 PM,77.0,69.8,78,29.86,5.0,Variable,1.2,-,N/A,,Mostly Cloudy,0,2014-01-26 13:00:00
8:30 PM,80.6,66.2,61,29.89,5.0,ENE,9.2,-,N/A,,Scattered Clouds,60,2014-01-26 13:30:00
9:00 PM,80.6,64.4,58,29.89,5.0,ENE,13.8,-,N/A,,Scattered Clouds,60,2014-01-26 14:00:00
9:30 PM,78.8,64.4,61,29.89,5.0,ENE,13.8,-,N/A,,Scattered Clouds,70,2014-01-26 14:30:00
10:00 PM,80,66,53,29.88,5,ENE,6.9,,,,Haze,70,2014-01-26 15:00:00
10:00 PM,78.8,64.4,61,29.92,5.0,ENE,15.0,-,N/A,,Scattered Clouds,60,2014-01-26 15:00:00
10:30 PM,78.8,64.4,61,29.92,5.0,ENE,13.8,-,N/A,,Scattered Clouds,70,2014-01-26 15:30:00
11:00 PM,78.8,62.6,57,29.92,5.0,ENE,12.7,-,N/A,,Partly Cloudy,70,2014-01-26 16:00:00
11:30 PM,77.0,64.4,65,29.92,5.0,ENE,13.8,-,N/A,,Partly Cloudy,70,2014-01-26 16:30:00